WLF9634 NZWN-NZWK
Flight info
| Callsign | WLF9634 |
|---|---|
| Flight time | 0h 49m |
| Altitude | 29000 |
| Route | KAPTI Y273 DAGOM Y715 ARETI Y539 RO |
| Aircraft | B738/M-SDE2E3FGHIRWXY/LB1 |
Departure
| Time | 2026-05-01 10:14 |
|---|---|
| Airport | Wellington International Airport (NZWN) |
Arrival
| Time | 2026-05-01 11:03 |
|---|---|
| Airport | Whakatāne Airport (NZWK) |
| Time | Latitude | Longitude | Altitude | Speed | Heading |
|---|---|---|---|---|---|
| 2026-05-01 09:45 | -41.32767 | 174.80977 | 25 ft | 0 kts | 142° |
| 2026-05-01 10:03 | -41.32765 | 174.80975 | 25 ft | 3 kts | 142° |
| 2026-05-01 10:03 | -41.32743 | 174.80960 | 30 ft | 4 kts | 178° |
| 2026-05-01 10:04 | -41.32720 | 174.80968 | 29 ft | 4 kts | 223° |
| 2026-05-01 10:04 | -41.32705 | 174.80996 | 25 ft | 4 kts | 253° |
| 2026-05-01 10:04 | -41.32702 | 174.81016 | 28 ft | 0 kts | 272° |
| 2026-05-01 10:08 | -41.32701 | 174.80997 | 25 ft | 4 kts | 273° |
| 2026-05-01 10:08 | -41.32702 | 174.80946 | 27 ft | 8 kts | 263° |
| 2026-05-01 10:08 | -41.32714 | 174.80878 | 27 ft | 8 kts | 258° |
| 2026-05-01 10:09 | -41.32752 | 174.80819 | 25 ft | 10 kts | 197° |
| 2026-05-01 10:09 | -41.32828 | 174.80808 | 29 ft | 12 kts | 184° |
| 2026-05-01 10:09 | -41.32919 | 174.80802 | 28 ft | 14 kts | 181° |
| 2026-05-01 10:09 | -41.33022 | 174.80797 | 29 ft | 16 kts | 183° |
| 2026-05-01 10:10 | -41.33131 | 174.80788 | 26 ft | 16 kts | 182° |
| 2026-05-01 10:10 | -41.33244 | 174.80781 | 30 ft | 16 kts | 182° |
| 2026-05-01 10:10 | -41.33454 | 174.80769 | 29 ft | 10 kts | 181° |
| 2026-05-01 10:11 | -41.33515 | 174.80764 | 30 ft | 0 kts | 193° |
| 2026-05-01 10:12 | -41.33516 | 174.80764 | 29 ft | 1 kts | 194° |
| 2026-05-01 10:12 | -41.33563 | 174.80656 | 25 ft | 8 kts | 294° |
| 2026-05-01 10:13 | -41.33535 | 174.80635 | 25 ft | 0 kts | 354° |
| 2026-05-01 10:13 | -41.33530 | 174.80635 | 30 ft | 12 kts | 355° |
| 2026-05-01 10:13 | -41.33334 | 174.80644 | 28 ft | 73 kts | 4° |
| 2026-05-01 10:14 | -41.31369 | 174.80804 | 620 ft | 173 kts | 6° |
| 2026-05-01 10:14 | -41.30156 | 174.81001 | 1490 ft | 181 kts | 4° |
| 2026-05-01 10:14 | -41.28897 | 174.81068 | 2236 ft | 191 kts | 2° |
| 2026-05-01 10:14 | -41.27500 | 174.81112 | 2419 ft | 209 kts | 359° |
| 2026-05-01 10:15 | -41.26087 | 174.80559 | 2636 ft | 223 kts | 331° |
| 2026-05-01 10:15 | -41.24653 | 174.79725 | 2940 ft | 230 kts | 349° |
| 2026-05-01 10:15 | -41.23023 | 174.79316 | 3147 ft | 245 kts | 349° |
| 2026-05-01 10:15 | -41.21343 | 174.78809 | 3660 ft | 250 kts | 347° |
| 2026-05-01 10:16 | -41.19642 | 174.78244 | 4209 ft | 254 kts | 346° |
| 2026-05-01 10:16 | -41.17909 | 174.77661 | 4779 ft | 257 kts | 346° |
| 2026-05-01 10:16 | -41.14352 | 174.77154 | 6478 ft | 267 kts | 19° |
| 2026-05-01 10:17 | -41.12793 | 174.78419 | 7355 ft | 270 kts | 42° |
| 2026-05-01 10:17 | -41.09366 | 174.80536 | 8979 ft | 280 kts | 15° |
| 2026-05-01 10:17 | -41.07466 | 174.81229 | 9771 ft | 285 kts | 16° |
| 2026-05-01 10:18 | -41.03484 | 174.82775 | 10708 ft | 321 kts | 17° |
| 2026-05-01 10:18 | -41.01267 | 174.83675 | 10924 ft | 344 kts | 18° |
| 2026-05-01 10:18 | -40.98927 | 174.84643 | 11467 ft | 355 kts | 18° |
| 2026-05-01 10:19 | -40.96545 | 174.85638 | 12214 ft | 359 kts | 18° |
| 2026-05-01 10:19 | -40.94160 | 174.86641 | 12974 ft | 362 kts | 18° |
| 2026-05-01 10:19 | -40.91767 | 174.87651 | 13683 ft | 366 kts | 18° |
| 2026-05-01 10:20 | -40.86861 | 174.89727 | 15089 ft | 374 kts | 18° |
| 2026-05-01 10:20 | -40.84373 | 174.90779 | 15806 ft | 377 kts | 18° |
| 2026-05-01 10:20 | -40.81851 | 174.91844 | 16443 ft | 382 kts | 18° |
| 2026-05-01 10:20 | -40.79301 | 174.92921 | 17072 ft | 386 kts | 18° |
| 2026-05-01 10:21 | -40.76731 | 174.94005 | 17714 ft | 390 kts | 18° |
| 2026-05-01 10:21 | -40.71528 | 174.96197 | 18879 ft | 398 kts | 18° |
| 2026-05-01 10:21 | -40.68883 | 174.97311 | 19484 ft | 401 kts | 18° |
| 2026-05-01 10:22 | -40.63499 | 174.99529 | 20593 ft | 409 kts | 14° |
| 2026-05-01 10:22 | -40.57760 | 174.99719 | 21642 ft | 417 kts | 358° |
| 2026-05-01 10:23 | -40.54900 | 174.99589 | 22118 ft | 420 kts | 359° |
| 2026-05-01 10:23 | -40.48997 | 174.99435 | 23069 ft | 427 kts | 360° |
| 2026-05-01 10:23 | -40.46007 | 174.99386 | 23553 ft | 430 kts | 0° |
| 2026-05-01 10:24 | -40.39992 | 174.99322 | 24410 ft | 437 kts | 0° |
| 2026-05-01 10:24 | -40.33882 | 174.99267 | 25298 ft | 441 kts | 0° |
| 2026-05-01 10:25 | -40.27698 | 174.99203 | 26086 ft | 447 kts | 0° |
| 2026-05-01 10:25 | -40.21432 | 174.99137 | 26828 ft | 452 kts | 0° |
| 2026-05-01 10:26 | -40.18282 | 174.99103 | 27208 ft | 454 kts | 0° |
| 2026-05-01 10:26 | -40.15118 | 174.99065 | 27560 ft | 456 kts | 0° |
| 2026-05-01 10:26 | -40.08779 | 174.98976 | 28210 ft | 461 kts | 0° |
| 2026-05-01 10:27 | -40.02351 | 174.98883 | 28976 ft | 461 kts | 0° |
| 2026-05-01 10:27 | -39.95962 | 174.98793 | 29594 ft | 458 kts | 0° |
| 2026-05-01 10:28 | -39.92792 | 174.98748 | 29609 ft | 455 kts | 0° |
| 2026-05-01 10:28 | -39.83352 | 174.98616 | 29624 ft | 452 kts | 0° |
| 2026-05-01 10:29 | -39.77060 | 174.98852 | 29601 ft | 452 kts | 12° |
| 2026-05-01 10:29 | -39.74047 | 174.99990 | 29628 ft | 450 kts | 23° |
| 2026-05-01 10:30 | -39.68749 | 175.04198 | 29623 ft | 447 kts | 38° |
| 2026-05-01 10:30 | -39.63784 | 175.09008 | 29607 ft | 448 kts | 38° |
| 2026-05-01 10:31 | -39.53714 | 175.18554 | 29609 ft | 447 kts | 37° |
| 2026-05-01 10:32 | -39.46162 | 175.25628 | 29612 ft | 446 kts | 37° |
| 2026-05-01 10:33 | -39.36108 | 175.34957 | 29611 ft | 445 kts | 34° |
| 2026-05-01 10:34 | -39.28168 | 175.41212 | 29612 ft | 446 kts | 32° |
| 2026-05-01 10:34 | -39.22877 | 175.45279 | 29619 ft | 445 kts | 32° |
| 2026-05-01 10:35 | -39.14909 | 175.51481 | 29616 ft | 445 kts | 33° |
| 2026-05-01 10:35 | -39.09619 | 175.55612 | 29612 ft | 445 kts | 33° |
| 2026-05-01 10:36 | -39.01664 | 175.61807 | 29607 ft | 445 kts | 33° |
| 2026-05-01 10:37 | -38.96396 | 175.65899 | 29604 ft | 445 kts | 33° |
| 2026-05-01 10:37 | -38.88447 | 175.72061 | 29608 ft | 445 kts | 33° |
| 2026-05-01 10:38 | -38.83139 | 175.76166 | 29603 ft | 445 kts | 33° |
| 2026-05-01 10:38 | -38.77827 | 175.80267 | 29603 ft | 445 kts | 33° |
| 2026-05-01 10:39 | -38.72570 | 175.84319 | 29585 ft | 435 kts | 33° |
| 2026-05-01 10:39 | -38.69996 | 175.86300 | 29235 ft | 428 kts | 33° |
| 2026-05-01 10:39 | -38.67467 | 175.88244 | 28884 ft | 421 kts | 33° |
| 2026-05-01 10:40 | -38.64967 | 175.90164 | 28434 ft | 417 kts | 33° |
| 2026-05-01 10:40 | -38.62492 | 175.92062 | 27981 ft | 413 kts | 33° |
| 2026-05-01 10:40 | -38.60034 | 175.93947 | 27530 ft | 409 kts | 33° |
| 2026-05-01 10:40 | -38.57601 | 175.95811 | 27073 ft | 406 kts | 33° |
| 2026-05-01 10:41 | -38.55191 | 175.97656 | 26626 ft | 403 kts | 33° |
| 2026-05-01 10:41 | -38.52796 | 175.99488 | 26185 ft | 399 kts | 33° |
| 2026-05-01 10:41 | -38.48061 | 176.03102 | 25295 ft | 393 kts | 33° |
| 2026-05-01 10:42 | -38.45719 | 176.04890 | 24860 ft | 390 kts | 33° |
| 2026-05-01 10:42 | -38.43400 | 176.06659 | 24411 ft | 388 kts | 33° |
| 2026-05-01 10:42 | -38.41117 | 176.08398 | 23978 ft | 385 kts | 33° |
| 2026-05-01 10:42 | -38.38798 | 176.10166 | 23527 ft | 383 kts | 33° |
| 2026-05-01 10:43 | -38.36547 | 176.11880 | 23101 ft | 380 kts | 33° |
| 2026-05-01 10:43 | -38.34283 | 176.13603 | 22666 ft | 378 kts | 33° |
| 2026-05-01 10:43 | -38.32028 | 176.15317 | 22234 ft | 375 kts | 33° |
| 2026-05-01 10:43 | -38.29791 | 176.17016 | 21809 ft | 372 kts | 34° |
| 2026-05-01 10:44 | -38.27572 | 176.18700 | 21377 ft | 370 kts | 34° |
| 2026-05-01 10:44 | -38.25372 | 176.20371 | 20956 ft | 367 kts | 34° |
| 2026-05-01 10:44 | -38.23172 | 176.22039 | 20533 ft | 365 kts | 34° |
| 2026-05-01 10:44 | -38.21026 | 176.23667 | 20119 ft | 362 kts | 34° |
| 2026-05-01 10:45 | -38.18867 | 176.25301 | 19705 ft | 360 kts | 34° |
| 2026-05-01 10:45 | -38.16723 | 176.26922 | 19302 ft | 357 kts | 34° |
| 2026-05-01 10:45 | -38.14600 | 176.28530 | 18901 ft | 353 kts | 36° |
| 2026-05-01 10:45 | -38.12786 | 176.30543 | 18506 ft | 342 kts | 57° |
| 2026-05-01 10:46 | -38.11744 | 176.33183 | 18175 ft | 331 kts | 76° |
| 2026-05-01 10:46 | -38.11364 | 176.36022 | 17831 ft | 323 kts | 92° |
| 2026-05-01 10:46 | -38.11556 | 176.38843 | 17472 ft | 319 kts | 98° |
| 2026-05-01 10:46 | -38.11872 | 176.41637 | 17080 ft | 318 kts | 99° |
| 2026-05-01 10:47 | -38.12213 | 176.44403 | 16691 ft | 316 kts | 99° |
| 2026-05-01 10:47 | -38.12552 | 176.47151 | 16320 ft | 313 kts | 99° |
| 2026-05-01 10:47 | -38.12883 | 176.49878 | 15946 ft | 312 kts | 99° |
| 2026-05-01 10:47 | -38.13201 | 176.52563 | 15574 ft | 311 kts | 99° |
| 2026-05-01 10:48 | -38.13517 | 176.55275 | 15192 ft | 309 kts | 99° |
| 2026-05-01 10:48 | -38.13827 | 176.57975 | 14817 ft | 308 kts | 99° |
| 2026-05-01 10:48 | -38.14133 | 176.60657 | 14448 ft | 306 kts | 98° |
| 2026-05-01 10:48 | -38.14438 | 176.63332 | 14071 ft | 305 kts | 98° |
| 2026-05-01 10:49 | -38.14738 | 176.65993 | 13703 ft | 303 kts | 98° |
| 2026-05-01 10:49 | -38.15035 | 176.68636 | 13331 ft | 302 kts | 98° |
| 2026-05-01 10:49 | -38.15333 | 176.71280 | 12965 ft | 301 kts | 98° |
| 2026-05-01 10:49 | -38.15627 | 176.73905 | 12599 ft | 300 kts | 98° |
| 2026-05-01 10:50 | -38.15920 | 176.76527 | 12230 ft | 299 kts | 98° |
| 2026-05-01 10:50 | -38.16207 | 176.79100 | 11864 ft | 297 kts | 98° |
| 2026-05-01 10:50 | -38.16495 | 176.81698 | 11500 ft | 296 kts | 98° |
| 2026-05-01 10:50 | -38.16782 | 176.84286 | 11183 ft | 293 kts | 98° |
| 2026-05-01 10:51 | -38.17062 | 176.86812 | 11080 ft | 286 kts | 98° |
| 2026-05-01 10:51 | -38.17337 | 176.89300 | 10958 ft | 283 kts | 98° |
| 2026-05-01 10:51 | -38.17610 | 176.91776 | 10822 ft | 282 kts | 98° |
| 2026-05-01 10:51 | -38.17879 | 176.94212 | 10698 ft | 274 kts | 98° |
| 2026-05-01 10:52 | -38.18138 | 176.96577 | 10561 ft | 267 kts | 98° |
| 2026-05-01 10:52 | -38.18393 | 176.98907 | 10274 ft | 265 kts | 98° |
| 2026-05-01 10:52 | -38.18646 | 177.01214 | 10003 ft | 263 kts | 98° |
| 2026-05-01 10:52 | -38.18899 | 177.03526 | 9636 ft | 265 kts | 98° |
| 2026-05-01 10:53 | -38.19153 | 177.05849 | 9340 ft | 265 kts | 98° |
| 2026-05-01 10:53 | -38.19405 | 177.08168 | 9041 ft | 265 kts | 98° |
| 2026-05-01 10:53 | -38.19658 | 177.10494 | 8754 ft | 265 kts | 98° |
| 2026-05-01 10:53 | -38.19910 | 177.12815 | 8458 ft | 264 kts | 98° |
| 2026-05-01 10:54 | -38.20160 | 177.15118 | 8187 ft | 262 kts | 98° |
| 2026-05-01 10:54 | -38.20407 | 177.17408 | 7918 ft | 261 kts | 98° |
| 2026-05-01 10:54 | -38.20653 | 177.19686 | 7650 ft | 259 kts | 98° |
| 2026-05-01 10:54 | -38.20896 | 177.21947 | 7412 ft | 255 kts | 98° |
| 2026-05-01 10:55 | -38.21041 | 177.24177 | 7129 ft | 254 kts | 84° |
| 2026-05-01 10:55 | -38.20420 | 177.26250 | 6926 ft | 254 kts | 55° |
| 2026-05-01 10:55 | -38.19097 | 177.27722 | 6651 ft | 257 kts | 28° |
| 2026-05-01 10:55 | -38.17373 | 177.28263 | 6391 ft | 259 kts | 0° |
| 2026-05-01 10:56 | -38.15630 | 177.27727 | 6138 ft | 261 kts | 334° |
| 2026-05-01 10:56 | -38.14147 | 177.26462 | 5903 ft | 259 kts | 324° |
| 2026-05-01 10:56 | -38.12707 | 177.25086 | 5629 ft | 259 kts | 324° |
| 2026-05-01 10:56 | -38.11269 | 177.23699 | 5360 ft | 259 kts | 324° |
| 2026-05-01 10:57 | -38.09833 | 177.22325 | 5161 ft | 256 kts | 324° |
| 2026-05-01 10:57 | -38.08391 | 177.20946 | 4762 ft | 260 kts | 324° |
| 2026-05-01 10:57 | -38.06966 | 177.19593 | 4579 ft | 247 kts | 325° |
| 2026-05-01 10:57 | -38.05637 | 177.18346 | 4463 ft | 227 kts | 325° |
| 2026-05-01 10:58 | -38.04417 | 177.17194 | 4331 ft | 210 kts | 325° |
| 2026-05-01 10:58 | -38.03299 | 177.16143 | 4113 ft | 201 kts | 325° |
| 2026-05-01 10:58 | -38.02207 | 177.15112 | 3983 ft | 194 kts | 325° |
| 2026-05-01 10:58 | -38.01124 | 177.14092 | 3896 ft | 188 kts | 325° |
| 2026-05-01 10:59 | -38.00091 | 177.13120 | 3826 ft | 185 kts | 325° |
| 2026-05-01 10:59 | -37.99070 | 177.12131 | 3657 ft | 191 kts | 319° |
| 2026-05-01 10:59 | -37.98389 | 177.10701 | 3468 ft | 191 kts | 289° |
| 2026-05-01 10:59 | -37.97910 | 177.09132 | 3339 ft | 186 kts | 293° |
| 2026-05-01 11:00 | -37.97428 | 177.07675 | 3164 ft | 174 kts | 293° |
| 2026-05-01 11:00 | -37.96979 | 177.06313 | 2983 ft | 161 kts | 293° |
| 2026-05-01 11:00 | -37.96560 | 177.05030 | 2767 ft | 155 kts | 293° |
| 2026-05-01 11:00 | -37.96148 | 177.03765 | 2563 ft | 155 kts | 293° |
| 2026-05-01 11:01 | -37.95729 | 177.02484 | 2208 ft | 159 kts | 294° |
| 2026-05-01 11:01 | -37.95309 | 177.01214 | 1903 ft | 153 kts | 289° |
| 2026-05-01 11:01 | -37.94949 | 176.99937 | 1431 ft | 155 kts | 292° |
| 2026-05-01 11:01 | -37.94538 | 176.98707 | 1083 ft | 148 kts | 293° |
| 2026-05-01 11:02 | -37.94268 | 176.97921 | 929 ft | 147 kts | 292° |
| 2026-05-01 11:02 | -37.93860 | 176.96731 | 736 ft | 147 kts | 292° |
| 2026-05-01 11:02 | -37.93466 | 176.95536 | 627 ft | 147 kts | 292° |
| 2026-05-01 11:02 | -37.93061 | 176.94340 | 493 ft | 148 kts | 292° |
| 2026-05-01 11:03 | -37.92686 | 176.93118 | 239 ft | 149 kts | 292° |
| 2026-05-01 11:03 | -37.92312 | 176.91944 | 24 ft | 133 kts | 291° |
| 2026-05-01 11:03 | -37.92110 | 176.91356 | 26 ft | 41 kts | 292° |
| 2026-05-01 11:03 | -37.92011 | 176.91078 | 27 ft | 16 kts | 310° |
| 2026-05-01 11:04 | -37.92002 | 176.91033 | 27 ft | 3 kts | 225° |
| 2026-05-01 11:04 | -37.92017 | 176.91037 | 27 ft | 3 kts | 133° |
| 2026-05-01 11:04 | -37.92027 | 176.91060 | 27 ft | 4 kts | 116° |
| 2026-05-01 11:04 | -37.92051 | 176.91143 | 27 ft | 18 kts | 109° |
| 2026-05-01 11:05 | -37.92114 | 176.91359 | 26 ft | 35 kts | 111° |
| 2026-05-01 11:05 | -37.92201 | 176.91625 | 21 ft | 30 kts | 113° |
| 2026-05-01 11:05 | -37.92248 | 176.91767 | 21 ft | 14 kts | 112° |
| 2026-05-01 11:05 | -37.92280 | 176.91863 | 20 ft | 8 kts | 112° |
| 2026-05-01 11:06 | -37.92324 | 176.91898 | 22 ft | 8 kts | 191° |
| 2026-05-01 11:06 | -37.92357 | 176.91849 | 22 ft | 8 kts | 267° |
| 2026-05-01 11:06 | -37.92372 | 176.91799 | 24 ft | 3 kts | 215° |
| 2026-05-01 11:07 | -37.92384 | 176.91792 | 27 ft | 0 kts | 202° |